Time;durP1;ratioP1;P1;durP2;ratioP2;P2;SDS_P1;SDS_P2;PMS_P1;PMS_P2;Temp;Humidity;BMP_temperature;BMP_pressure;BME280_temperature;BME280_humidity;BME280_pressure;Samples;Min_cycle;Max_cycle;Signal;HPM_P1;HPM_P2
2024/04/23 00:01:37;;;;;;;11.30;10.20;;;1.90;99.90;;;;;;5208700;27;20243;-75
2024/04/23 00:04:03;;;;;;;10.60;9.60;;;2.00;99.90;;;;;;5198440;27;20294;-75
2024/04/23 00:06:31;;;;;;;10.43;9.53;;;1.90;99.90;;;;;;5205413;27;20250;-75
2024/04/23 00:08:57;;;;;;;11.10;10.20;;;1.80;99.90;;;;;;5201322;27;20243;-75
2024/04/23 00:11:30;;;;;;;12.23;11.13;;;1.70;99.90;;;;;;5201898;27;20711;-75
2024/04/23 00:13:56;;;;;;;11.97;10.97;;;1.70;99.90;;;;;;5205359;27;20229;-76
2024/04/23 00:16:25;;;;;;;11.63;10.63;;;1.70;99.90;;;;;;5203661;27;20243;-76
2024/04/23 00:18:51;;;;;;;12.87;11.80;;;1.60;99.90;;;;;;5199316;27;20303;-75
2024/04/23 00:21:19;;;;;;;12.67;11.67;;;1.60;99.90;;;;;;5195179;27;21015;-76
2024/04/23 00:23:45;;;;;;;12.03;11.03;;;1.60;99.90;;;;;;5196465;27;20349;-75
2024/04/23 00:26:13;;;;;;;12.63;11.63;;;1.60;99.90;;;;;;5198540;27;20244;-75
2024/04/23 00:28:42;;;;;;;13.27;12.17;;;1.60;99.90;;;;;;5227135;27;20299;-75
2024/04/23 00:31:10;;;;;;;12.80;11.80;;;1.60;99.90;;;;;;5199151;27;20747;-75
2024/04/23 00:33:36;;;;;;;13.00;11.90;;;1.70;99.90;;;;;;5199149;27;20273;-75
2024/04/23 00:36:05;;;;;;;12.93;11.73;;;1.70;99.90;;;;;;5205572;27;20478;-75
2024/04/23 00:38:31;;;;;;;11.70;10.80;;;1.70;99.90;;;;;;5206151;27;20231;-75
2024/04/23 00:40:59;;;;;;;12.80;11.80;;;1.70;99.90;;;;;;5197685;27;20479;-76
2024/04/23 00:43:25;;;;;;;14.00;12.90;;;1.60;99.90;;;;;;5207610;27;20247;-76
2024/04/23 00:46:00;;;;;;;12.90;11.83;;;1.50;99.90;;;;;;5207275;27;20247;-75
2024/04/23 00:48:26;;;;;;;12.63;11.53;;;1.50;99.90;;;;;;5196371;27;20269;-75
2024/04/23 00:50:56;;;;;;;13.10;12.00;;;1.40;99.90;;;;;;5213748;27;20301;-76
2024/04/23 00:53:22;;;;;;;11.87;10.97;;;1.40;99.90;;;;;;5189669;27;20536;-75
2024/04/23 00:55:51;;;;;;;12.50;11.50;;;1.40;99.90;;;;;;5201772;27;20264;-75
2024/04/23 00:58:17;;;;;;;13.13;11.93;;;1.40;99.90;;;;;;5187150;27;20533;-75
2024/04/23 01:00:46;;;;;;;12.80;11.67;;;1.40;99.90;;;;;;5196036;27;20494;-75
2024/04/23 01:03:15;;;;;;;12.43;11.43;;;1.30;99.90;;;;;;5204439;27;20235;-76
2024/04/23 01:05:44;;;;;;;12.90;11.70;;;1.20;99.90;;;;;;5199932;27;20478;-75
2024/04/23 01:08:10;;;;;;;12.97;11.87;;;1.20;99.90;;;;;;5200247;27;20487;-75
2024/04/23 01:10:41;;;;;;;12.60;11.60;;;1.20;99.90;;;;;;5199573;27;20307;-75
2024/04/23 01:13:07;;;;;;;13.20;12.03;;;1.20;99.90;;;;;;5197499;27;20383;-75
2024/04/23 01:15:38;;;;;;;12.63;11.63;;;1.10;99.90;;;;;;5204478;27;20532;-75
2024/04/23 01:18:05;;;;;;;13.97;12.77;;;1.10;99.90;;;;;;5200762;27;20276;-75
2024/04/23 01:20:36;;;;;;;14.10;12.63;;;1.00;99.90;;;;;;5191148;27;20484;-75
2024/04/23 01:23:10;;;;;;;12.47;11.47;;;1.00;99.90;;;;;;5199582;27;21000;-75
2024/04/23 01:25:40;;;;;;;12.87;11.77;;;1.00;99.90;;;;;;5205001;27;20490;-75
2024/04/23 01:28:08;;;;;;;13.17;11.87;;;0.90;99.90;;;;;;5200583;27;20472;-76
2024/04/23 01:30:38;;;;;;;13.60;12.50;;;0.90;99.90;;;;;;5227634;27;20550;-75
2024/04/23 01:33:06;;;;;;;13.53;12.17;;;0.80;99.90;;;;;;5193048;27;20471;-75
2024/04/23 01:35:35;;;;;;;14.03;12.83;;;0.80;99.90;;;;;;5180754;27;20539;-75
2024/04/23 01:38:02;;;;;;;14.30;12.87;;;0.80;99.90;;;;;;5200664;27;21002;-75
2024/04/23 01:40:31;;;;;;;15.43;13.83;;;0.70;99.90;;;;;;5191049;27;20582;-75
2024/04/23 01:42:57;;;;;;;13.67;12.47;;;0.70;99.90;;;;;;5201046;27;20588;-75
2024/04/23 01:45:30;;;;;;;14.53;13.33;;;0.80;99.90;;;;;;5186992;27;20854;-75
2024/04/23 01:47:56;;;;;;;13.20;12.10;;;0.90;99.90;;;;;;5191772;27;20469;-75
2024/04/23 01:50:25;;;;;;;14.07;12.97;;;0.90;99.90;;;;;;5188704;27;20667;-75
2024/04/23 01:52:51;;;;;;;14.00;12.80;;;0.90;99.90;;;;;;5196977;27;20475;-75
2024/04/23 01:55:20;;;;;;;13.87;12.67;;;1.00;99.90;;;;;;5189658;27;20806;-75
2024/04/23 01:57:46;;;;;;;13.67;12.37;;;1.00;99.90;;;;;;5193548;27;20285;-74
2024/04/23 02:00:19;;;;;;;14.13;12.83;;;0.90;99.90;;;;;;5189093;27;20599;-75
2024/04/23 02:02:49;;;;;;;13.43;12.33;;;0.90;99.90;;;;;;5198610;27;20529;-75
2024/04/23 02:05:19;;;;;;;13.00;11.90;;;0.90;99.90;;;;;;5181665;27;20535;-75
2024/04/23 02:07:46;;;;;;;13.40;12.20;;;0.80;99.90;;;;;;5204832;27;20520;-75
2024/04/23 02:10:14;;;;;;;14.43;13.07;;;0.70;99.90;;;;;;5182874;27;20488;-75
2024/04/23 02:12:41;;;;;;;13.43;12.33;;;0.80;99.90;;;;;;5218348;27;20491;-75
2024/04/23 02:15:10;;;;;;;13.10;12.00;;;0.80;99.90;;;;;;5201847;27;20472;-75
2024/04/23 02:17:36;;;;;;;13.47;12.40;;;0.80;99.90;;;;;;5191775;27;20540;-75
2024/04/23 02:20:10;;;;;;;12.47;11.57;;;0.80;99.90;;;;;;5199568;27;20537;-75
2024/04/23 02:22:36;;;;;;;13.87;12.80;;;0.70;99.90;;;;;;5197486;27;20538;-76
2024/04/23 02:25:05;;;;;;;13.60;12.50;;;0.70;99.90;;;;;;5203731;27;20490;-75
2024/04/23 02:27:31;;;;;;;13.90;12.80;;;0.70;99.90;;;;;;5198235;27;20488;-75
2024/04/23 02:30:02;;;;;;;13.30;12.20;;;0.60;99.90;;;;;;5196548;27;20597;-75
2024/04/23 02:32:28;;;;;;;13.97;12.57;;;0.60;99.90;;;;;;5199616;27;20238;-75
2024/04/23 02:34:56;;;;;;;12.13;11.13;;;0.60;99.90;;;;;;5192775;27;20534;-75
2024/04/23 02:37:25;;;;;;;13.20;12.07;;;0.60;99.90;;;;;;5198479;27;20239;-75
2024/04/23 02:39:53;;;;;;;12.40;11.30;;;0.60;99.90;;;;;;5218166;27;20550;-75
2024/04/23 02:42:19;;;;;;;13.33;12.23;;;0.60;99.90;;;;;;5201288;27;20537;-75
2024/04/23 02:44:48;;;;;;;13.73;12.53;;;0.60;99.90;;;;;;5202555;27;20479;-75
2024/04/23 02:47:14;;;;;;;14.27;13.07;;;0.60;99.90;;;;;;5203134;27;20752;-75
2024/04/23 02:49:42;;;;;;;14.23;13.03;;;0.70;99.90;;;;;;5206353;27;20529;-76
2024/04/23 02:52:08;;;;;;;15.10;13.73;;;0.60;99.90;;;;;;5206271;27;20594;-76
2024/04/23 02:54:39;;;;;;;15.77;14.37;;;0.70;99.90;;;;;;5200289;27;20490;-76
2024/04/23 02:57:05;;;;;;;16.17;14.70;;;0.80;99.90;;;;;;5210091;27;20492;-77
2024/04/23 02:59:34;;;;;;;14.90;13.53;;;0.70;99.90;;;;;;5203320;27;20611;-77
2024/04/23 03:02:01;;;;;;;14.93;13.73;;;0.60;99.90;;;;;;5237908;27;20876;-77
2024/04/23 03:04:29;;;;;;;14.57;13.17;;;0.50;99.90;;;;;;5211960;27;20485;-77
2024/04/23 03:06:55;;;;;;;14.47;13.17;;;0.50;99.90;;;;;;5209790;27;20483;-77
2024/04/23 03:09:24;;;;;;;14.33;13.03;;;0.40;99.90;;;;;;5197983;27;21048;-77
2024/04/23 03:11:53;;;;;;;13.60;12.40;;;0.30;99.90;;;;;;5237038;27;20257;-78
2024/04/23 03:14:21;;;;;;;13.67;12.50;;;0.30;99.90;;;;;;5198839;27;21029;-78
2024/04/23 03:16:47;;;;;;;13.90;12.70;;;0.30;99.90;;;;;;5204523;27;20607;-77
2024/04/23 03:19:16;;;;;;;13.37;12.17;;;0.30;99.90;;;;;;5217091;27;20495;-76
2024/04/23 03:21:50;;;;;;;14.13;12.93;;;0.20;99.90;;;;;;5199403;27;20299;-77
2024/04/23 03:24:18;;;;;;;14.47;13.17;;;0.30;99.90;;;;;;5210720;27;20533;-76
2024/04/23 03:26:44;;;;;;;14.97;13.67;;;0.30;99.90;;;;;;5196405;27;20634;-76
2024/04/23 03:29:15;;;;;;;14.47;13.17;;;0.30;99.90;;;;;;5195658;27;20499;-77
2024/04/23 03:31:41;;;;;;;15.47;14.07;;;0.40;99.90;;;;;;5221493;27;20838;-75
2024/04/23 03:34:10;;;;;;;15.17;13.87;;;0.30;99.90;;;;;;5207315;27;20470;-76
2024/04/23 03:36:36;;;;;;;14.20;13.00;;;0.30;99.90;;;;;;5230528;27;20275;-75
2024/04/23 03:39:04;;;;;;;14.40;13.10;;;0.30;99.90;;;;;;5202824;27;20524;-75
2024/04/23 03:41:33;;;;;;;14.40;13.10;;;0.30;99.90;;;;;;5194876;27;20485;-75
2024/04/23 03:44:01;;;;;;;16.93;13.87;;;0.30;99.90;;;;;;5193664;27;20586;-75
2024/04/23 03:46:32;;;;;;;14.23;12.93;;;0.20;99.90;;;;;;5203063;27;20619;-76
2024/04/23 03:49:01;;;;;;;14.40;13.10;;;0.20;99.90;;;;;;5192272;27;20820;-75
2024/04/23 03:51:27;;;;;;;14.63;13.33;;;0.20;99.90;;;;;;5235346;27;20489;-75
2024/04/23 03:53:55;;;;;;;18.10;13.23;;;0.10;99.90;;;;;;5192420;27;20603;-75
2024/04/23 03:56:21;;;;;;;14.33;13.07;;;0.20;99.90;;;;;;5222139;27;20250;-75
2024/04/23 03:58:50;;;;;;;14.60;13.33;;;0.20;99.90;;;;;;5202845;27;20542;-75
2024/04/23 04:01:15;;;;;;;15.00;13.70;;;0.20;99.90;;;;;;5189744;27;20761;-75
2024/04/23 04:06:31;;;;;;;15.53;14.03;;;0.20;99.90;;;;;;5230363;27;20284;-76
2024/04/23 04:08:59;;;;;;;15.10;13.90;;;0.10;99.90;;;;;;5219435;27;20485;-75
2024/04/23 04:11:31;;;;;;;15.80;14.37;;;0.20;99.90;;;;;;5190166;27;20794;-75
2024/04/23 04:14:00;;;;;;;15.93;14.47;;;0.20;99.90;;;;;;5203546;27;20495;-75
2024/04/23 04:16:26;;;;;;;15.13;13.83;;;0.30;99.90;;;;;;5178008;27;20548;-76
2024/04/23 04:18:58;;;;;;;16.00;14.60;;;0.30;99.90;;;;;;5203865;27;20799;-76
2024/04/23 04:21:24;;;;;;;15.57;14.10;;;0.20;99.90;;;;;;5194222;27;21107;-75
2024/04/23 04:23:52;;;;;;;15.90;14.50;;;0.20;99.90;;;;;;5193044;27;20469;-75
2024/04/23 04:26:18;;;;;;;15.40;14.10;;;0.10;99.90;;;;;;5180067;27;20241;-75
2024/04/23 04:28:46;;;;;;;16.20;14.80;;;0.10;99.90;;;;;;5203905;27;20597;-75
2024/04/23 04:31:12;;;;;;;16.70;15.10;;;0.10;99.90;;;;;;5201505;27;20261;-75
2024/04/23 04:33:41;;;;;;;16.47;14.97;;;0.00;99.90;;;;;;5229806;27;20550;-76
2024/04/23 04:36:09;;;;;;;16.33;14.73;;;0.10;99.90;;;;;;5204651;27;20275;-75
2024/04/23 04:38:38;;;;;;;16.90;15.30;;;0.10;99.90;;;;;;5180364;27;20482;-75
2024/04/23 04:41:04;;;;;;;16.87;15.20;;;0.20;99.90;;;;;;5195936;27;20477;-76
2024/04/23 04:43:33;;;;;;;17.37;15.63;;;0.20;99.90;;;;;;5188147;27;21145;-75
2024/04/23 04:45:59;;;;;;;16.20;14.80;;;0.30;99.90;;;;;;5204789;27;20622;-76
2024/04/23 04:48:27;;;;;;;16.40;14.90;;;0.20;99.90;;;;;;5200876;27;20486;-76
2024/04/23 04:50:53;;;;;;;17.37;15.73;;;0.30;99.90;;;;;;5181820;27;20247;-76
2024/04/23 04:53:24;;;;;;;16.33;14.83;;;0.40;99.90;;;;;;5205677;27;20586;-76
2024/04/23 04:55:50;;;;;;;15.97;14.50;;;0.40;99.90;;;;;;5195913;27;20238;-75
2024/04/23 04:58:18;;;;;;;16.67;15.33;;;0.40;99.90;;;;;;5193595;27;20589;-75
2024/04/23 05:00:44;;;;;;;16.17;14.57;;;0.50;99.90;;;;;;5229909;22;21247;-79
2024/04/23 05:03:13;;;;;;;16.13;14.83;;;0.50;99.90;;;;;;5244572;27;20476;-80
2024/04/23 05:05:39;;;;;;;16.63;15.27;;;0.50;99.90;;;;;;5262654;27;20244;-78
2024/04/23 05:08:08;;;;;;;16.10;14.70;;;0.60;99.90;;;;;;5244136;27;20480;-81
2024/04/23 05:10:38;;;;;;;16.33;14.97;;;0.70;99.90;;;;;;5254116;27;20308;-80
2024/04/23 05:13:07;;;;;;;17.13;15.63;;;0.70;99.90;;;;;;5243161;27;20539;-81
2024/04/23 05:15:33;;;;;;;16.03;14.73;;;0.70;99.90;;;;;;5242410;27;21026;-79
2024/04/23 05:18:01;;;;;;;17.43;15.83;;;0.80;99.90;;;;;;5244004;27;20473;-79
2024/04/23 05:20:28;;;;;;;17.20;15.60;;;0.80;99.90;;;;;;5231278;27;20625;-79
2024/04/23 05:22:56;;;;;;;15.77;14.47;;;0.90;99.90;;;;;;5256684;27;20539;-80
2024/04/23 05:25:22;;;;;;;17.40;15.77;;;1.00;99.90;;;;;;5241878;27;20585;-80
2024/04/23 05:27:53;;;;;;;16.57;15.07;;;1.00;99.90;;;;;;5217576;27;20748;-80
2024/04/23 05:33:02;;;;;;;16.00;14.60;;;1.40;99.90;;;;;;5229127;27;20546;-79
2024/04/23 05:35:31;;;;;;;16.97;15.43;;;1.60;99.90;;;;;;5229516;27;20465;-79
2024/04/23 05:37:59;;;;;;;17.30;15.80;;;1.80;99.90;;;;;;5237371;27;20250;-80
2024/04/23 05:40:28;;;;;;;17.23;15.63;;;2.00;99.90;;;;;;5230213;27;20764;-79
2024/04/23 05:42:59;;;;;;;16.57;15.13;;;2.20;99.90;;;;;;5228602;27;20475;-79
2024/04/23 05:45:28;;;;;;;16.40;14.87;;;2.40;99.90;;;;;;5230914;27;20595;-80
2024/04/23 05:48:34;;;;;;;16.73;15.20;;;2.60;99.90;;;;;;5241811;27;20335;-79
2024/04/23 05:51:59;;;;;;;16.03;14.83;;;3.00;99.90;;;;;;5225895;27;20360;-80
2024/04/23 05:55:23;;;;;;;16.60;15.10;;;3.50;99.90;;;;;;5225093;27;20860;-80
2024/04/23 05:57:52;;;;;;;15.23;14.03;;;3.60;99.90;;;;;;5240730;27;20238;-80
2024/04/23 06:00:23;;;;;;;15.70;14.50;;;3.90;99.90;;;;;;5271185;27;20287;-80
2024/04/23 06:02:49;;;;;;;14.57;13.47;;;4.10;99.90;;;;;;5237250;27;20271;-79
2024/04/23 06:05:18;;;;;;;15.23;14.03;;;4.30;99.90;;;;;;5238272;27;20243;-82
2024/04/23 06:07:44;;;;;;;14.87;13.67;;;4.50;99.90;;;;;;5242726;27;20254;-82
2024/04/23 06:10:12;;;;;;;14.83;13.60;;;4.60;99.90;;;;;;5230772;27;20247;-81
2024/04/23 06:12:38;;;;;;;14.97;13.70;;;4.60;99.90;;;;;;5244124;27;20284;-80
2024/04/23 06:15:08;;;;;;;14.77;13.53;;;4.50;99.90;;;;;;5235611;27;20238;-80
2024/04/23 06:17:36;;;;;;;14.70;13.27;;;4.60;99.90;;;;;;5234442;27;20243;-79
2024/04/23 06:20:06;;;;;;;13.80;12.70;;;4.70;99.90;;;;;;5227703;27;20242;-80
2024/04/23 06:22:36;;;;;;;15.23;13.73;;;4.70;99.90;;;;;;5248372;27;20328;-85
2024/04/23 06:25:05;;;;;;;14.20;13.00;;;4.60;99.90;;;;;;5222714;27;20371;-82
2024/04/23 06:27:32;;;;;;;15.70;14.37;;;4.60;99.90;;;;;;5262899;27;20284;-88
2024/04/23 06:30:08;;;;;;;15.27;14.07;;;4.70;99.90;;;;;;5229478;27;20244;-87
2024/04/23 06:32:36;;;;;;;15.30;14.10;;;4.70;99.90;;;;;;5241799;27;20304;-87
2024/04/23 06:35:05;;;;;;;15.10;14.00;;;4.80;99.90;;;;;;5224846;27;20247;-86
2024/04/23 06:37:32;;;;;;;15.57;14.17;;;5.00;99.90;;;;;;5245724;27;20265;-85
2024/04/23 06:40:03;;;;;;;14.83;13.50;;;5.20;99.90;;;;;;5228905;27;20274;-84
2024/04/23 06:42:29;;;;;;;14.97;13.80;;;5.40;99.90;;;;;;5247235;27;20284;-78
2024/04/23 06:44:57;;;;;;;14.50;13.30;;;5.60;99.90;;;;;;5219859;27;20239;-80
2024/04/23 06:47:24;;;;;;;14.73;13.43;;;5.50;99.90;;;;;;5237166;27;20262;-81
2024/04/23 06:49:55;;;;;;;14.57;13.33;;;5.50;99.90;;;;;;5239500;27;20725;-78
2024/04/23 06:52:21;;;;;;;14.10;12.90;;;5.40;99.90;;;;;;5238251;27;20285;-80
2024/04/23 06:54:50;;;;;;;14.33;13.10;;;5.30;99.90;;;;;;5238715;27;20350;-78
2024/04/23 06:57:16;;;;;;;14.00;12.73;;;5.20;99.90;;;;;;5231605;27;20355;-80
2024/04/23 06:59:44;;;;;;;13.97;12.83;;;5.10;99.90;;;;;;5244760;27;20245;-80
2024/04/23 07:02:10;;;;;;;13.97;12.87;;;5.20;99.90;;;;;;5242788;27;20303;-80
2024/04/23 07:04:39;;;;;;;13.63;12.53;;;5.40;99.90;;;;;;5241903;27;20303;-80
2024/04/23 07:07:07;;;;;;;13.90;12.80;;;5.60;99.90;;;;;;5242575;27;20288;-80
2024/04/23 07:09:36;;;;;;;14.37;13.07;;;5.60;99.90;;;;;;5218184;27;20233;-82
2024/04/23 07:12:02;;;;;;;13.40;12.40;;;5.70;99.90;;;;;;5232729;27;20245;-86
2024/04/23 07:14:31;;;;;;;14.27;13.03;;;5.70;99.90;;;;;;5234796;27;20253;-86
2024/04/23 07:16:57;;;;;;;14.13;12.90;;;5.70;99.90;;;;;;5242168;27;20241;-80
2024/04/23 07:19:25;;;;;;;14.00;12.83;;;5.90;99.90;;;;;;5240218;27;20242;-85
2024/04/23 07:21:52;;;;;;;13.67;12.60;;;6.10;99.90;;;;;;5217881;27;20309;-84
2024/04/23 07:24:23;;;;;;;14.20;13.00;;;6.10;99.90;;;;;;5231051;27;20279;-84
2024/04/23 07:26:51;;;;;;;14.53;13.23;;;5.80;99.90;;;;;;5245025;27;20246;-85
2024/04/23 07:29:20;;;;;;;13.47;12.40;;;5.90;99.90;;;;;;5225302;27;20297;-83
2024/04/23 07:31:46;;;;;;;13.60;12.57;;;6.10;99.90;;;;;;5224153;27;20261;-78
2024/04/23 07:34:14;;;;;;;13.77;12.70;;;6.10;99.90;;;;;;5256464;27;20275;-79
2024/04/23 07:36:40;;;;;;;14.20;12.90;;;5.90;99.90;;;;;;5236421;27;20365;-79
2024/04/23 07:39:09;;;;;;;13.60;12.50;;;5.70;99.90;;;;;;5236237;27;20248;-79
2024/04/23 07:41:37;;;;;;;13.53;12.43;;;6.00;99.90;;;;;;5232890;27;20379;-79
2024/04/23 07:44:06;;;;;;;15.60;14.10;;;6.10;99.90;;;;;;5265753;27;20252;-80
2024/04/23 07:46:32;;;;;;;13.37;12.07;;;6.40;99.90;;;;;;5223983;27;20361;-79
2024/04/23 07:49:00;;;;;;;13.60;12.53;;;6.80;99.90;;;;;;5224590;27;20261;-78
2024/04/23 07:51:30;;;;;;;12.17;11.17;;;7.40;99.90;;;;;;5235225;27;20255;-78
2024/04/23 07:53:59;;;;;;;7.47;6.60;;;7.90;99.90;;;;;;5239621;27;20281;-79
2024/04/23 07:56:25;;;;;;;13.33;12.33;;;8.10;99.90;;;;;;5224358;27;20285;-77
2024/04/23 07:58:57;;;;;;;12.27;8.93;;;8.80;99.90;;;;;;5214948;27;20235;-79
2024/04/23 08:01:23;;;;;;;8.80;6.83;;;9.10;99.90;;;;;;5237568;27;20762;-79
2024/04/23 08:03:51;;;;;;;9.07;6.50;;;9.30;99.90;;;;;;5237618;27;20238;-84
2024/04/23 08:06:17;;;;;;;9.50;8.60;;;9.30;99.90;;;;;;5230039;27;20285;-82
2024/04/23 08:08:46;;;;;;;8.63;7.77;;;9.50;99.90;;;;;;5236136;27;20730;-85
2024/04/23 08:11:12;;;;;;;10.10;7.73;;;9.10;99.90;;;;;;5239536;27;20302;-85
2024/04/23 08:13:41;;;;;;;8.33;7.53;;;9.40;99.90;;;;;;5247773;27;20235;-85
2024/04/23 08:16:13;;;;;;;8.37;7.60;;;9.60;99.90;;;;;;5235557;27;20254;-83
2024/04/23 08:18:40;;;;;;;9.87;7.90;;;9.90;99.90;;;;;;5261273;27;20250;-84
2024/04/23 08:21:10;;;;;;;10.53;8.73;;;10.00;99.90;;;;;;5268214;27;20285;-84
2024/04/23 08:23:36;;;;;;;9.27;8.30;;;9.90;99.90;;;;;;5238343;27;20312;-84
2024/04/23 08:26:09;;;;;;;9.53;8.63;;;10.30;99.90;;;;;;5237065;27;20255;-85
2024/04/23 08:28:35;;;;;;;8.70;7.80;;;10.50;99.90;;;;;;5216257;27;20237;-84
2024/04/23 08:31:04;;;;;;;9.17;7.87;;;10.10;99.90;;;;;;5215878;27;20245;-85
2024/04/23 08:33:34;;;;;;;10.93;9.80;;;9.60;99.90;;;;;;5243540;27;20783;-85
2024/04/23 08:36:02;;;;;;;13.40;12.13;;;9.40;99.90;;;;;;5243916;27;20248;-84
2024/04/23 08:38:28;;;;;;;10.17;8.73;;;9.50;99.90;;;;;;5243984;27;20239;-85
2024/04/23 08:40:57;;;;;;;12.57;11.57;;;9.70;99.90;;;;;;5243287;27;20318;-85
2024/04/23 08:43:30;;;;;;;13.90;12.70;;;9.90;99.90;;;;;;5214807;27;20406;-86
2024/04/23 08:46:01;;;;;;;10.40;9.40;;;10.10;99.90;;;;;;5224098;27;20233;-85
2024/04/23 08:48:28;;;;;;;8.87;7.97;;;10.70;99.90;;;;;;5233007;27;20238;-85
2024/04/23 08:50:59;;;;;;;8.77;7.97;;;11.00;99.90;;;;;;5236738;27;20639;-85
2024/04/23 08:53:27;;;;;;;8.30;6.70;;;11.20;99.90;;;;;;5239785;27;20373;-85
2024/04/23 08:55:59;;;;;;;8.70;6.73;;;11.40;99.90;;;;;;5235965;27;20275;-84
2024/04/23 08:58:25;;;;;;;8.93;8.10;;;11.60;99.90;;;;;;5239397;27;20265;-86
2024/04/23 09:00:54;;;;;;;8.33;7.57;;;12.00;99.90;;;;;;5244047;27;20258;-85
2024/04/23 09:03:22;;;;;;;9.67;8.60;;;11.80;99.90;;;;;;5237050;27;20371;-86
2024/04/23 09:05:51;;;;;;;9.87;8.70;;;11.10;99.90;;;;;;5229168;27;20239;-85
2024/04/23 09:08:21;;;;;;;14.13;12.97;;;10.70;99.90;;;;;;5240460;27;20718;-83
2024/04/23 09:10:50;;;;;;;10.07;9.07;;;10.60;99.90;;;;;;5241037;27;20591;-84
2024/04/23 09:13:16;;;;;;;9.47;8.57;;;10.60;99.90;;;;;;5211917;27;20375;-83
2024/04/23 09:15:45;;;;;;;8.63;7.83;;;10.80;99.90;;;;;;5226543;27;20239;-83
2024/04/23 09:18:11;;;;;;;9.70;8.73;;;11.50;99.90;;;;;;5210381;27;20242;-81
2024/04/23 09:20:40;;;;;;;9.83;8.93;;;11.40;99.90;;;;;;5242516;27;20761;-84
2024/04/23 09:23:06;;;;;;;12.50;11.50;;;11.30;99.90;;;;;;5227565;27;20246;-84
2024/04/23 09:25:38;;;;;;;13.17;12.07;;;11.40;99.90;;;;;;5248413;27;20246;-84
2024/04/23 09:28:07;;;;;;;10.33;9.37;;;11.90;99.90;;;;;;5247768;27;20234;-84
2024/04/23 09:30:40;;;;;;;13.97;12.80;;;12.30;99.90;;;;;;5238600;27;20289;-84
2024/04/23 09:33:06;;;;;;;8.23;7.43;;;12.60;99.90;;;;;;5224398;27;20238;-85
2024/04/23 09:35:35;;;;;;;13.90;12.60;;;13.20;99.90;;;;;;5232540;27;20665;-85
2024/04/23 09:38:04;;;;;;;13.00;11.87;;;12.90;99.90;;;;;;5239491;27;20750;-83
2024/04/23 09:40:42;;;;;;;14.13;13.03;;;12.10;99.90;;;;;;5233713;27;20243;-84
2024/04/23 09:43:11;;;;;;;14.27;13.27;;;12.00;99.90;;;;;;5241617;27;20409;-85
2024/04/23 09:45:37;;;;;;;12.07;11.13;;;11.90;99.90;;;;;;5250309;27;20723;-84
2024/04/23 09:48:06;;;;;;;13.43;12.33;;;12.10;99.90;;;;;;5245451;27;20581;-84
2024/04/23 09:50:32;;;;;;;12.73;11.73;;;12.30;99.90;;;;;;5247136;27;20251;-84
2024/04/23 09:53:07;;;;;;;12.63;11.57;;;12.80;99.90;;;;;;5235726;27;20242;-84
2024/04/23 09:55:33;;;;;;;12.60;11.60;;;13.10;99.90;;;;;;5229812;27;20296;-84
2024/04/23 09:58:05;;;;;;;8.77;7.97;;;12.90;99.90;;;;;;5240881;27;20748;-83
2024/04/23 10:00:33;;;;;;;16.00;14.90;;;12.30;99.90;;;;;;5241437;27;20353;-84
2024/04/23 10:03:13;;;;;;;12.20;11.10;;;11.50;99.90;;;;;;5253032;27;20246;-84
2024/04/23 10:05:46;;;;;;;11.30;10.40;;;11.40;99.90;;;;;;5239048;27;20292;-83
2024/04/23 10:08:18;;;;;;;12.80;11.70;;;11.60;99.90;;;;;;5230825;27;20242;-87
2024/04/23 10:10:51;;;;;;;13.53;12.33;;;11.40;99.90;;;;;;5236604;27;20245;-83
2024/04/23 10:13:25;;;;;;;13.40;12.10;;;11.40;99.90;;;;;;5274477;27;20275;-83
2024/04/23 10:15:56;;;;;;;12.70;11.60;;;11.70;99.90;;;;;;5234858;27;20320;-83
2024/04/23 10:18:34;;;;;;;13.60;12.57;;;12.00;99.90;;;;;;5227773;27;20247;-82
2024/04/23 10:21:01;;;;;;;12.97;11.90;;;12.00;99.90;;;;;;5240816;27;20337;-84
2024/04/23 10:23:32;;;;;;;12.00;11.00;;;11.80;99.90;;;;;;5241936;27;20597;-83
2024/04/23 10:25:59;;;;;;;12.87;11.93;;;12.00;99.90;;;;;;5240713;27;20250;-83
2024/04/23 10:28:30;;;;;;;12.90;11.73;;;12.40;99.90;;;;;;5273031;27;20246;-85
2024/04/23 10:30:56;;;;;;;13.00;12.00;;;12.20;99.90;;;;;;5248673;27;20725;-85
2024/04/23 10:33:30;;;;;;;13.40;12.27;;;12.00;99.90;;;;;;5243601;27;20263;-83
2024/04/23 10:35:57;;;;;;;12.23;11.33;;;11.80;99.90;;;;;;5236291;27;20292;-83
2024/04/23 10:38:28;;;;;;;13.40;11.97;;;11.80;99.90;;;;;;5238365;27;20243;-84
2024/04/23 10:40:54;;;;;;;13.30;12.23;;;12.10;99.90;;;;;;5240231;27;20643;-84
2024/04/23 10:43:23;;;;;;;11.87;10.90;;;11.90;99.90;;;;;;5236510;27;20239;-83
2024/04/23 10:45:52;;;;;;;12.57;11.30;;;12.00;99.90;;;;;;5241606;27;20351;-83
2024/04/23 10:48:27;;;;;;;11.83;10.93;;;12.20;99.90;;;;;;5247354;27;20753;-84
2024/04/23 10:50:55;;;;;;;11.83;10.83;;;12.00;99.90;;;;;;5246175;27;20288;-83
2024/04/23 10:53:25;;;;;;;13.13;12.03;;;11.90;99.90;;;;;;5246513;27;20280;-83
2024/04/23 10:55:51;;;;;;;12.30;11.33;;;11.70;99.90;;;;;;5243964;27;20336;-82
2024/04/23 10:58:22;;;;;;;11.90;11.00;;;11.20;99.90;;;;;;5229321;27;20279;-83
2024/04/23 11:03:28;;;;;;;11.57;10.63;;;11.10;99.90;;;;;;5262628;27;20291;-76
2024/04/23 11:05:54;;;;;;;11.83;10.90;;;11.00;99.90;;;;;;5273354;27;20329;-77
2024/04/23 11:08:25;;;;;;;11.80;10.90;;;11.60;99.90;;;;;;5264580;27;20265;-76
2024/04/23 11:10:52;;;;;;;11.10;10.20;;;11.90;99.90;;;;;;5276098;27;20799;-76
2024/04/23 11:13:30;;;;;;;11.40;10.60;;;12.00;99.90;;;;;;5251242;27;20249;-75
2024/04/23 11:16:01;;;;;;;11.23;10.33;;;11.90;99.90;;;;;;5244086;27;20245;-76
2024/04/23 11:18:44;;;;;;;11.53;10.53;;;11.60;99.90;;;;;;5223445;27;20273;-78
2024/04/23 11:21:10;;;;;;;11.80;10.80;;;11.40;99.90;;;;;;5243397;27;20242;-77
2024/04/23 11:23:43;;;;;;;11.60;10.70;;;11.40;99.90;;;;;;5243295;27;20245;-76
2024/04/23 11:26:09;;;;;;;10.63;9.87;;;11.60;99.90;;;;;;5244841;27;20242;-78
2024/04/23 11:28:39;;;;;;;11.47;10.67;;;11.70;99.90;;;;;;5238470;27;20246;-77
2024/04/23 11:31:06;;;;;;;12.17;11.20;;;11.90;99.90;;;;;;5271505;27;20245;-77
2024/04/23 11:33:35;;;;;;;11.73;10.83;;;11.80;99.90;;;;;;5254888;27;20238;-78
2024/04/23 11:36:04;;;;;;;11.33;10.43;;;11.90;99.90;;;;;;5245255;27;20336;-77
2024/04/23 11:38:43;;;;;;;11.43;10.53;;;12.10;99.90;;;;;;5242578;27;20241;-77
2024/04/23 11:41:14;;;;;;;10.53;9.83;;;12.40;99.90;;;;;;5245866;27;20301;-77
2024/04/23 11:43:45;;;;;;;11.47;10.57;;;12.70;99.90;;;;;;5253273;27;20364;-78
2024/04/23 11:46:13;;;;;;;11.50;10.60;;;12.70;99.90;;;;;;5242548;27;20289;-78
2024/04/23 11:48:41;;;;;;;10.60;9.80;;;12.60;99.90;;;;;;5243833;27;20344;-78
2024/04/23 11:51:11;;;;;;;11.93;11.03;;;12.40;99.90;;;;;;5242843;27;20299;-77
2024/04/23 11:53:40;;;;;;;10.63;9.80;;;12.30;99.90;;;;;;5243175;27;20376;-77
2024/04/23 11:56:06;;;;;;;10.93;10.13;;;12.20;99.90;;;;;;5244451;27;20748;-78
2024/04/23 11:58:39;;;;;;;11.17;10.30;;;12.00;99.90;;;;;;5243899;27;20342;-77
2024/04/23 12:01:09;;;;;;;10.43;9.63;;;11.80;99.90;;;;;;5236361;27;20237;-78
2024/04/23 12:03:36;;;;;;;10.87;10.07;;;11.70;99.90;;;;;;5243988;27;20238;-78
2024/04/23 12:06:06;;;;;;;10.80;9.93;;;11.80;99.90;;;;;;5243400;27;20777;-77
2024/04/23 12:08:35;;;;;;;11.00;10.10;;;12.00;99.90;;;;;;5242158;27;20301;-77
2024/04/23 12:11:04;;;;;;;10.60;9.70;;;11.90;99.90;;;;;;5241961;27;20242;-77
2024/04/23 12:13:30;;;;;;;10.73;9.70;;;11.70;99.90;;;;;;5269598;27;20246;-78
2024/04/23 12:15:59;;;;;;;10.50;9.70;;;11.60;99.90;;;;;;5241929;27;20254;-77
2024/04/23 12:18:25;;;;;;;10.90;10.00;;;11.40;99.90;;;;;;5242176;27;20246;-78
2024/04/23 12:20:53;;;;;;;10.27;9.40;;;11.30;99.90;;;;;;5243310;27;20238;-78
2024/04/23 12:23:19;;;;;;;10.67;9.77;;;11.60;99.90;;;;;;5237503;27;20237;-78
2024/04/23 12:25:50;;;;;;;10.60;9.80;;;11.70;99.90;;;;;;5244439;27;20246;-79
2024/04/23 12:28:16;;;;;;;11.33;10.33;;;11.80;99.90;;;;;;5221576;27;20230;-79
2024/04/23 12:30:45;;;;;;;9.87;9.17;;;11.60;99.90;;;;;;5232412;27;20365;-78
2024/04/23 12:33:12;;;;;;;10.97;9.97;;;11.70;99.90;;;;;;5244284;27;20352;-79
2024/04/23 12:35:41;;;;;;;10.30;9.60;;;11.60;99.90;;;;;;5244176;27;20730;-78
2024/04/23 12:38:09;;;;;;;9.97;9.27;;;11.50;99.90;;;;;;5227763;27;20385;-78
2024/04/23 12:40:38;;;;;;;10.23;9.33;;;11.80;99.90;;;;;;5231799;27;20642;-81
2024/04/23 12:43:12;;;;;;;9.97;9.27;;;11.50;99.90;;;;;;5223544;27;20235;-80
2024/04/23 12:45:41;;;;;;;10.77;9.87;;;11.60;99.90;;;;;;5227607;27;20272;-80
2024/04/23 12:48:07;;;;;;;10.63;9.83;;;12.00;99.90;;;;;;5245851;27;20234;-81
2024/04/23 12:50:36;;;;;;;10.23;9.53;;;12.10;99.90;;;;;;5241963;27;20278;-81
2024/04/23 12:53:02;;;;;;;10.30;9.43;;;12.20;99.90;;;;;;5235847;27;20742;-80